Fort Lauderdale Hollywood International Airport
KFLL : now visible

Airfield :











YOU CAN JOIN US ON...

 
LOGIN :

Register | Disclaimer

   EN    FR    IT 

 









Legend :    VFR   Marginal VFR   IFR   Intensive IFR   Very Intensive IFR
Visi :
Ceiling :
>= 8 km
>= 3000ft
5 to 8 km
1000 to 3000 ft
1500m to 5 km
500 to 1000 ft
800 to 1500m
200 to 500 ft
< 800m
< 200 ft
Symbols :   Thunderstorms  Fog  Heavy snow  Heavy precipitations  Wind > 20 kt







- Airport Elevation : 9 ft
- IATA code : FLL


KFLL - Fort Lauderdale Hollywood International

CURRENT METAR :
  • 260253Z 00000KT 10SM FEW037 FEW080 FEW250 28/24 A2995 RMK AO2 SLP142 T02780244 51015

EXPIRED METARs :
  • 260153Z 00000KT 10SM FEW035 SCT070 SCT250 28/24 A2995 RMK AO2 SLP140 T02780239
  • 260053Z 00000KT 10SM FEW033 SCT075 BKN250 28/24 A2993 RMK AO2 SLP134 T02780239

TAF KFLL
Valid from the 26 at 03:00 until the 27 at 06:00 UTC


260301Z 2603/2706 VRB05KT P6SM FEW035 SCT060 BKN250
FM261500 23007KT P6SM VCSH SCT030 SCT060 BKN250
FM261700 17010KT P6SM VCTS SCT020CB BKN050 BKN250
FM262200 22008KT P6SM VCSH SCT030 SCT050 BKN250
FM270000 VRB04KT P6SM SCT040 SCT080 BKN250
No reported NOTAMs for that airfield.



MET'MAP, your aeronautical weather chart ! - Copyright ORBIFLY December 2007 - Disclaimer

ORBIFLY MET'MAP TEAM :

Programming & Development : Alexandra Zaïnal
Concept & Development : Baudouin d'Aumeries
Co-Development & Prog : Marc-Olivier Méhu
Technical & hardware support : Manuel Goepfert

Contact : metmap@orbifly.com




SOURCES & CREDITS :

   NOAA       Earth
Advisory